sensor_id;sensor_type;location;lat;lon;timestamp;temperature;humidity
21722;DHT22;11023;48.274;7.794;2024-02-23T00:02:11;7.70;99.90
21722;DHT22;11023;48.274;7.794;2024-02-23T00:04:37;7.70;99.90
21722;DHT22;11023;48.274;7.794;2024-02-23T00:07:03;7.60;99.90
21722;DHT22;11023;48.274;7.794;2024-02-23T00:09:29;7.60;99.90
21722;DHT22;11023;48.274;7.794;2024-02-23T00:11:55;7.60;99.90
21722;DHT22;11023;48.274;7.794;2024-02-23T00:14:20;7.60;99.90
21722;DHT22;11023;48.274;7.794;2024-02-23T00:16:46;7.60;99.90
21722;DHT22;11023;48.274;7.794;2024-02-23T00:19:13;7.60;99.90
21722;DHT22;11023;48.274;7.794;2024-02-23T00:21:39;7.60;99.90
21722;DHT22;11023;48.274;7.794;2024-02-23T00:24:08;7.60;99.90
21722;DHT22;11023;48.274;7.794;2024-02-23T00:26:33;7.60;99.90
21722;DHT22;11023;48.274;7.794;2024-02-23T00:28:59;7.70;99.90
21722;DHT22;11023;48.274;7.794;2024-02-23T00:31:25;7.70;99.90
21722;DHT22;11023;48.274;7.794;2024-02-23T00:33:50;7.70;99.90
21722;DHT22;11023;48.274;7.794;2024-02-23T00:36:17;7.70;99.90
21722;DHT22;11023;48.274;7.794;2024-02-23T00:38:43;7.70;99.90
21722;DHT22;11023;48.274;7.794;2024-02-23T00:41:09;7.70;99.90
21722;DHT22;11023;48.274;7.794;2024-02-23T00:43:39;7.70;99.90
21722;DHT22;11023;48.274;7.794;2024-02-23T00:46:05;7.70;99.90
21722;DHT22;11023;48.274;7.794;2024-02-23T00:48:30;7.70;99.90
21722;DHT22;11023;48.274;7.794;2024-02-23T00:50:56;7.70;99.90
21722;DHT22;11023;48.274;7.794;2024-02-23T00:53:22;7.70;99.90
21722;DHT22;11023;48.274;7.794;2024-02-23T00:55:48;7.70;99.90
21722;DHT22;11023;48.274;7.794;2024-02-23T00:58:15;7.70;99.90
21722;DHT22;11023;48.274;7.794;2024-02-23T01:00:41;7.70;99.90
21722;DHT22;11023;48.274;7.794;2024-02-23T01:03:07;7.60;99.90
21722;DHT22;11023;48.274;7.794;2024-02-23T01:05:33;7.60;99.90
21722;DHT22;11023;48.274;7.794;2024-02-23T01:07:59;7.60;99.90
21722;DHT22;11023;48.274;7.794;2024-02-23T01:10:25;7.60;99.90
21722;DHT22;11023;48.274;7.794;2024-02-23T01:12:50;7.60;99.90
21722;DHT22;11023;48.274;7.794;2024-02-23T01:15:16;7.60;99.90
21722;DHT22;11023;48.274;7.794;2024-02-23T01:17:42;7.60;99.90
21722;DHT22;11023;48.274;7.794;2024-02-23T01:20:08;7.50;99.90
21722;DHT22;11023;48.274;7.794;2024-02-23T01:22:34;7.50;99.90
21722;DHT22;11023;48.274;7.794;2024-02-23T01:25:00;7.60;99.90
21722;DHT22;11023;48.274;7.794;2024-02-23T01:27:25;7.60;99.90
21722;DHT22;11023;48.274;7.794;2024-02-23T01:29:51;7.50;99.90
21722;DHT22;11023;48.274;7.794;2024-02-23T01:32:17;7.60;99.90
21722;DHT22;11023;48.274;7.794;2024-02-23T01:34:42;7.60;99.90
21722;DHT22;11023;48.274;7.794;2024-02-23T01:37:08;7.60;99.90
21722;DHT22;11023;48.274;7.794;2024-02-23T01:39:34;7.50;99.90
21722;DHT22;11023;48.274;7.794;2024-02-23T01:42:00;7.50;99.90
21722;DHT22;11023;48.274;7.794;2024-02-23T01:44:27;7.50;99.90
21722;DHT22;11023;48.274;7.794;2024-02-23T01:46:53;7.50;99.90
21722;DHT22;11023;48.274;7.794;2024-02-23T01:49:20;7.40;99.90
21722;DHT22;11023;48.274;7.794;2024-02-23T01:51:47;7.40;99.90
21722;DHT22;11023;48.274;7.794;2024-02-23T01:54:12;7.30;99.90
21722;DHT22;11023;48.274;7.794;2024-02-23T01:56:38;7.30;99.90
21722;DHT22;11023;48.274;7.794;2024-02-23T01:59:07;7.30;99.90
21722;DHT22;11023;48.274;7.794;2024-02-23T02:01:35;7.20;99.90
21722;DHT22;11023;48.274;7.794;2024-02-23T02:04:01;7.10;99.90
21722;DHT22;11023;48.274;7.794;2024-02-23T02:06:27;7.10;99.90
21722;DHT22;11023;48.274;7.794;2024-02-23T02:08:53;7.10;99.90
21722;DHT22;11023;48.274;7.794;2024-02-23T02:11:19;7.10;99.90
21722;DHT22;11023;48.274;7.794;2024-02-23T02:13:45;7.00;99.90
21722;DHT22;11023;48.274;7.794;2024-02-23T02:16:12;7.00;99.90
21722;DHT22;11023;48.274;7.794;2024-02-23T02:18:38;6.90;99.90
21722;DHT22;11023;48.274;7.794;2024-02-23T02:21:04;6.90;99.90
21722;DHT22;11023;48.274;7.794;2024-02-23T02:23:30;6.80;99.90
21722;DHT22;11023;48.274;7.794;2024-02-23T02:25:56;6.80;99.90
21722;DHT22;11023;48.274;7.794;2024-02-23T02:28:24;6.70;99.90
21722;DHT22;11023;48.274;7.794;2024-02-23T02:30:51;6.70;99.90
21722;DHT22;11023;48.274;7.794;2024-02-23T02:33:17;6.70;99.90
21722;DHT22;11023;48.274;7.794;2024-02-23T02:35:43;6.70;99.90
21722;DHT22;11023;48.274;7.794;2024-02-23T02:38:09;6.80;99.90
21722;DHT22;11023;48.274;7.794;2024-02-23T02:40:35;6.80;99.90
21722;DHT22;11023;48.274;7.794;2024-02-23T02:43:01;6.70;99.90
21722;DHT22;11023;48.274;7.794;2024-02-23T02:45:27;6.80;99.90
21722;DHT22;11023;48.274;7.794;2024-02-23T02:47:54;6.80;99.90
21722;DHT22;11023;48.274;7.794;2024-02-23T02:50:21;6.80;99.90
21722;DHT22;11023;48.274;7.794;2024-02-23T02:52:47;6.70;99.90
21722;DHT22;11023;48.274;7.794;2024-02-23T02:55:13;6.60;99.90
21722;DHT22;11023;48.274;7.794;2024-02-23T02:57:38;6.60;99.90
21722;DHT22;11023;48.274;7.794;2024-02-23T03:00:05;6.50;99.90
21722;DHT22;11023;48.274;7.794;2024-02-23T03:02:31;6.50;99.90
21722;DHT22;11023;48.274;7.794;2024-02-23T03:04:57;6.40;99.90
21722;DHT22;11023;48.274;7.794;2024-02-23T03:07:23;6.40;99.90
21722;DHT22;11023;48.274;7.794;2024-02-23T03:09:48;6.30;99.90
21722;DHT22;11023;48.274;7.794;2024-02-23T03:12:17;6.30;99.90
21722;DHT22;11023;48.274;7.794;2024-02-23T03:14:44;6.30;99.90
21722;DHT22;11023;48.274;7.794;2024-02-23T03:17:10;6.30;99.90
21722;DHT22;11023;48.274;7.794;2024-02-23T03:19:36;6.30;99.90
21722;DHT22;11023;48.274;7.794;2024-02-23T03:22:02;6.20;99.90
21722;DHT22;11023;48.274;7.794;2024-02-23T03:24:28;6.20;99.90
21722;DHT22;11023;48.274;7.794;2024-02-23T03:26:54;6.20;99.90
21722;DHT22;11023;48.274;7.794;2024-02-23T03:29:22;6.20;99.90
21722;DHT22;11023;48.274;7.794;2024-02-23T03:31:55;6.20;99.90
21722;DHT22;11023;48.274;7.794;2024-02-23T03:34:21;6.10;99.90
21722;DHT22;11023;48.274;7.794;2024-02-23T03:36:47;6.10;99.90
21722;DHT22;11023;48.274;7.794;2024-02-23T03:39:13;6.10;99.90
21722;DHT22;11023;48.274;7.794;2024-02-23T03:41:39;6.10;99.90
21722;DHT22;11023;48.274;7.794;2024-02-23T03:44:05;6.00;99.90
21722;DHT22;11023;48.274;7.794;2024-02-23T03:46:37;6.00;99.90
21722;DHT22;11023;48.274;7.794;2024-02-23T03:49:03;6.00;99.90
21722;DHT22;11023;48.274;7.794;2024-02-23T03:51:29;6.00;99.90
21722;DHT22;11023;48.274;7.794;2024-02-23T03:53:54;6.00;99.90
21722;DHT22;11023;48.274;7.794;2024-02-23T03:56:20;5.90;99.90
21722;DHT22;11023;48.274;7.794;2024-02-23T03:58:46;5.90;99.90
21722;DHT22;11023;48.274;7.794;2024-02-23T04:01:13;5.90;99.90
21722;DHT22;11023;48.274;7.794;2024-02-23T04:03:38;5.90;99.90
21722;DHT22;11023;48.274;7.794;2024-02-23T04:06:04;5.90;99.90
21722;DHT22;11023;48.274;7.794;2024-02-23T04:08:30;6.00;99.90
21722;DHT22;11023;48.274;7.794;2024-02-23T04:10:58;5.90;99.90
21722;DHT22;11023;48.274;7.794;2024-02-23T04:13:23;5.90;99.90
21722;DHT22;11023;48.274;7.794;2024-02-23T04:15:49;5.90;99.90
21722;DHT22;11023;48.274;7.794;2024-02-23T04:18:15;5.90;99.90
21722;DHT22;11023;48.274;7.794;2024-02-23T04:20:41;5.90;99.90
21722;DHT22;11023;48.274;7.794;2024-02-23T04:23:07;5.90;99.90
21722;DHT22;11023;48.274;7.794;2024-02-23T04:25:33;5.90;99.90
21722;DHT22;11023;48.274;7.794;2024-02-23T04:27:59;5.90;99.90
21722;DHT22;11023;48.274;7.794;2024-02-23T04:30:24;5.90;99.90
21722;DHT22;11023;48.274;7.794;2024-02-23T04:32:50;5.80;99.90
21722;DHT22;11023;48.274;7.794;2024-02-23T04:35:16;5.80;99.90
21722;DHT22;11023;48.274;7.794;2024-02-23T04:37:45;5.80;99.90
21722;DHT22;11023;48.274;7.794;2024-02-23T04:40:11;5.80;99.90
21722;DHT22;11023;48.274;7.794;2024-02-23T04:42:37;5.80;99.90
21722;DHT22;11023;48.274;7.794;2024-02-23T04:45:04;5.90;99.90
21722;DHT22;11023;48.274;7.794;2024-02-23T04:47:30;5.90;99.90
21722;DHT22;11023;48.274;7.794;2024-02-23T04:49:56;5.90;99.90
21722;DHT22;11023;48.274;7.794;2024-02-23T04:52:21;5.90;99.90
21722;DHT22;11023;48.274;7.794;2024-02-23T04:54:47;5.90;99.90
21722;DHT22;11023;48.274;7.794;2024-02-23T04:57:13;5.80;99.90
21722;DHT22;11023;48.274;7.794;2024-02-23T04:59:39;5.80;99.90
21722;DHT22;11023;48.274;7.794;2024-02-23T05:02:04;5.90;99.90
21722;DHT22;11023;48.274;7.794;2024-02-23T05:04:30;5.90;99.90
21722;DHT22;11023;48.274;7.794;2024-02-23T05:06:59;5.90;99.90
21722;DHT22;11023;48.274;7.794;2024-02-23T05:09:25;5.90;99.90
21722;DHT22;11023;48.274;7.794;2024-02-23T05:11:51;5.90;99.90
21722;DHT22;11023;48.274;7.794;2024-02-23T05:14:17;5.90;99.90
21722;DHT22;11023;48.274;7.794;2024-02-23T05:16:42;5.90;99.90
21722;DHT22;11023;48.274;7.794;2024-02-23T05:19:09;5.90;99.90
21722;DHT22;11023;48.274;7.794;2024-02-23T05:21:35;5.90;99.90
21722;DHT22;11023;48.274;7.794;2024-02-23T05:24:01;5.90;99.90
21722;DHT22;11023;48.274;7.794;2024-02-23T05:26:27;5.90;99.90
21722;DHT22;11023;48.274;7.794;2024-02-23T05:28:52;5.90;99.90
21722;DHT22;11023;48.274;7.794;2024-02-23T05:31:19;5.90;99.90
21722;DHT22;11023;48.274;7.794;2024-02-23T05:33:46;5.80;99.90
21722;DHT22;11023;48.274;7.794;2024-02-23T05:36:12;5.80;99.90
21722;DHT22;11023;48.274;7.794;2024-02-23T05:38:38;5.80;99.90
21722;DHT22;11023;48.274;7.794;2024-02-23T05:41:04;5.80;99.90
21722;DHT22;11023;48.274;7.794;2024-02-23T05:43:30;5.80;99.90
21722;DHT22;11023;48.274;7.794;2024-02-23T05:45:56;5.80;99.90
21722;DHT22;11023;48.274;7.794;2024-02-23T05:48:24;5.70;99.90
21722;DHT22;11023;48.274;7.794;2024-02-23T05:50:50;5.70;99.90
21722;DHT22;11023;48.274;7.794;2024-02-23T05:53:15;5.70;99.90
21722;DHT22;11023;48.274;7.794;2024-02-23T05:55:41;5.70;99.90
21722;DHT22;11023;48.274;7.794;2024-02-23T05:58:07;5.60;99.90
21722;DHT22;11023;48.274;7.794;2024-02-23T06:00:32;5.60;99.90
21722;DHT22;11023;48.274;7.794;2024-02-23T06:02:58;5.60;99.90
21722;DHT22;11023;48.274;7.794;2024-02-23T06:05:24;5.50;99.90
21722;DHT22;11023;48.274;7.794;2024-02-23T06:07:50;5.60;99.90
21722;DHT22;11023;48.274;7.794;2024-02-23T06:10:16;5.50;99.90
21722;DHT22;11023;48.274;7.794;2024-02-23T06:12:41;5.50;99.90
21722;DHT22;11023;48.274;7.794;2024-02-23T06:15:07;5.40;99.90
21722;DHT22;11023;48.274;7.794;2024-02-23T06:17:33;5.40;99.90
21722;DHT22;11023;48.274;7.794;2024-02-23T06:19:59;5.40;99.90
21722;DHT22;11023;48.274;7.794;2024-02-23T06:22:25;5.30;99.90
21722;DHT22;11023;48.274;7.794;2024-02-23T06:24:51;5.30;99.90
21722;DHT22;11023;48.274;7.794;2024-02-23T06:27:17;5.30;99.90
21722;DHT22;11023;48.274;7.794;2024-02-23T06:29:43;5.30;99.90
21722;DHT22;11023;48.274;7.794;2024-02-23T06:32:08;5.20;99.90
21722;DHT22;11023;48.274;7.794;2024-02-23T06:34:34;5.20;99.90
21722;DHT22;11023;48.274;7.794;2024-02-23T06:37:01;5.20;99.90
21722;DHT22;11023;48.274;7.794;2024-02-23T06:39:27;5.20;99.90
21722;DHT22;11023;48.274;7.794;2024-02-23T06:41:55;5.20;99.90
21722;DHT22;11023;48.274;7.794;2024-02-23T06:44:23;5.20;99.90
21722;DHT22;11023;48.274;7.794;2024-02-23T06:46:49;5.20;99.90
21722;DHT22;11023;48.274;7.794;2024-02-23T06:49:14;5.20;99.90
21722;DHT22;11023;48.274;7.794;2024-02-23T06:51:40;5.20;99.90
21722;DHT22;11023;48.274;7.794;2024-02-23T06:54:07;5.20;99.90
21722;DHT22;11023;48.274;7.794;2024-02-23T06:56:33;5.20;99.90
21722;DHT22;11023;48.274;7.794;2024-02-23T06:59:00;5.30;99.90
21722;DHT22;11023;48.274;7.794;2024-02-23T07:01:25;5.30;99.90
21722;DHT22;11023;48.274;7.794;2024-02-23T07:03:52;5.30;99.90
21722;DHT22;11023;48.274;7.794;2024-02-23T07:06:19;5.30;99.90
21722;DHT22;11023;48.274;7.794;2024-02-23T07:08:45;5.40;99.90
21722;DHT22;11023;48.274;7.794;2024-02-23T07:11:11;5.50;99.90
21722;DHT22;11023;48.274;7.794;2024-02-23T07:13:37;5.50;99.90
21722;DHT22;11023;48.274;7.794;2024-02-23T07:16:04;5.60;99.90
21722;DHT22;11023;48.274;7.794;2024-02-23T07:18:29;5.60;99.90
21722;DHT22;11023;48.274;7.794;2024-02-23T07:20:55;5.70;99.90
21722;DHT22;11023;48.274;7.794;2024-02-23T07:23:22;5.80;99.90
21722;DHT22;11023;48.274;7.794;2024-02-23T07:25:48;5.90;99.90
21722;DHT22;11023;48.274;7.794;2024-02-23T07:28:16;5.90;99.90
21722;DHT22;11023;48.274;7.794;2024-02-23T07:30:43;6.00;99.90
21722;DHT22;11023;48.274;7.794;2024-02-23T07:33:10;6.10;99.90
21722;DHT22;11023;48.274;7.794;2024-02-23T07:35:36;6.20;99.90
21722;DHT22;11023;48.274;7.794;2024-02-23T07:38:01;6.20;99.90
21722;DHT22;11023;48.274;7.794;2024-02-23T07:40:27;6.20;99.90
21722;DHT22;11023;48.274;7.794;2024-02-23T07:42:53;6.20;99.90
21722;DHT22;11023;48.274;7.794;2024-02-23T07:45:19;6.20;99.90
21722;DHT22;11023;48.274;7.794;2024-02-23T07:47:45;6.30;99.90
21722;DHT22;11023;48.274;7.794;2024-02-23T07:50:11;6.30;99.90
21722;DHT22;11023;48.274;7.794;2024-02-23T07:52:39;6.40;99.90
21722;DHT22;11023;48.274;7.794;2024-02-23T07:55:05;6.40;99.90
21722;DHT22;11023;48.274;7.794;2024-02-23T07:57:33;6.40;99.90
21722;DHT22;11023;48.274;7.794;2024-02-23T08:00:00;6.50;99.90
21722;DHT22;11023;48.274;7.794;2024-02-23T08:02:26;6.50;99.90
21722;DHT22;11023;48.274;7.794;2024-02-23T08:04:52;6.60;99.90
21722;DHT22;11023;48.274;7.794;2024-02-23T08:07:18;6.60;99.90
21722;DHT22;11023;48.274;7.794;2024-02-23T08:09:43;6.70;99.90
21722;DHT22;11023;48.274;7.794;2024-02-23T08:12:11;6.70;99.90
21722;DHT22;11023;48.274;7.794;2024-02-23T08:14:39;6.80;99.90
21722;DHT22;11023;48.274;7.794;2024-02-23T08:17:04;6.80;99.90
21722;DHT22;11023;48.274;7.794;2024-02-23T08:19:30;6.80;99.90
21722;DHT22;11023;48.274;7.794;2024-02-23T08:21:56;6.80;99.90
21722;DHT22;11023;48.274;7.794;2024-02-23T08:24:22;6.80;99.90
21722;DHT22;11023;48.274;7.794;2024-02-23T08:26:48;6.90;99.90
21722;DHT22;11023;48.274;7.794;2024-02-23T08:29:14;6.90;99.90
21722;DHT22;11023;48.274;7.794;2024-02-23T08:31:40;7.00;99.90
21722;DHT22;11023;48.274;7.794;2024-02-23T08:34:05;7.10;99.90
21722;DHT22;11023;48.274;7.794;2024-02-23T08:36:32;7.20;99.90
21722;DHT22;11023;48.274;7.794;2024-02-23T08:38:59;7.30;99.90
21722;DHT22;11023;48.274;7.794;2024-02-23T08:41:25;7.40;99.90
21722;DHT22;11023;48.274;7.794;2024-02-23T08:43:50;7.50;99.90
21722;DHT22;11023;48.274;7.794;2024-02-23T08:46:16;7.60;99.90
21722;DHT22;11023;48.274;7.794;2024-02-23T08:48:43;7.70;99.90
21722;DHT22;11023;48.274;7.794;2024-02-23T08:51:09;7.70;99.90
21722;DHT22;11023;48.274;7.794;2024-02-23T08:53:35;7.70;99.90
21722;DHT22;11023;48.274;7.794;2024-02-23T08:56:00;7.80;99.90
21722;DHT22;11023;48.274;7.794;2024-02-23T08:58:26;7.80;99.90
21722;DHT22;11023;48.274;7.794;2024-02-23T09:00:52;7.80;99.90
21722;DHT22;11023;48.274;7.794;2024-02-23T09:03:18;7.80;99.90
21722;DHT22;11023;48.274;7.794;2024-02-23T09:05:44;7.80;99.90
21722;DHT22;11023;48.274;7.794;2024-02-23T09:08:13;7.80;99.90
21722;DHT22;11023;48.274;7.794;2024-02-23T09:10:40;7.80;99.90
21722;DHT22;11023;48.274;7.794;2024-02-23T09:13:06;7.80;99.90
21722;DHT22;11023;48.274;7.794;2024-02-23T09:15:32;7.90;99.90
21722;DHT22;11023;48.274;7.794;2024-02-23T09:17:58;7.90;99.90
21722;DHT22;11023;48.274;7.794;2024-02-23T09:20:25;7.90;99.90
21722;DHT22;11023;48.274;7.794;2024-02-23T09:22:50;8.00;99.90
21722;DHT22;11023;48.274;7.794;2024-02-23T09:25:16;8.10;99.90
21722;DHT22;11023;48.274;7.794;2024-02-23T09:27:42;8.10;99.90
21722;DHT22;11023;48.274;7.794;2024-02-23T09:30:15;8.20;99.90
21722;DHT22;11023;48.274;7.794;2024-02-23T09:32:41;8.30;99.90
21722;DHT22;11023;48.274;7.794;2024-02-23T09:35:07;8.30;99.90
21722;DHT22;11023;48.274;7.794;2024-02-23T09:37:33;8.40;99.90
21722;DHT22;11023;48.274;7.794;2024-02-23T09:39:59;8.50;99.90
21722;DHT22;11023;48.274;7.794;2024-02-23T09:42:25;8.60;99.90
21722;DHT22;11023;48.274;7.794;2024-02-23T09:44:58;8.80;99.90
21722;DHT22;11023;48.274;7.794;2024-02-23T09:47:27;9.00;99.90
21722;DHT22;11023;48.274;7.794;2024-02-23T09:49:56;9.10;99.90
21722;DHT22;11023;48.274;7.794;2024-02-23T09:52:22;9.30;99.90
21722;DHT22;11023;48.274;7.794;2024-02-23T09:54:48;9.40;99.90
21722;DHT22;11023;48.274;7.794;2024-02-23T09:57:16;9.40;99.90
21722;DHT22;11023;48.274;7.794;2024-02-23T09:59:42;9.50;99.90
21722;DHT22;11023;48.274;7.794;2024-02-23T10:02:09;9.50;99.90
21722;DHT22;11023;48.274;7.794;2024-02-23T10:04:36;9.50;99.90
21722;DHT22;11023;48.274;7.794;2024-02-23T10:07:02;9.40;99.90
21722;DHT22;11023;48.274;7.794;2024-02-23T10:09:30;9.40;99.90
21722;DHT22;11023;48.274;7.794;2024-02-23T10:11:56;9.40;99.90
21722;DHT22;11023;48.274;7.794;2024-02-23T10:14:21;9.40;99.90
21722;DHT22;11023;48.274;7.794;2024-02-23T10:16:47;9.50;99.90
21722;DHT22;11023;48.274;7.794;2024-02-23T10:19:18;9.60;99.90
21722;DHT22;11023;48.274;7.794;2024-02-23T10:21:45;9.60;99.90
21722;DHT22;11023;48.274;7.794;2024-02-23T10:24:11;9.70;99.90
21722;DHT22;11023;48.274;7.794;2024-02-23T10:26:37;9.70;99.90
21722;DHT22;11023;48.274;7.794;2024-02-23T10:29:03;9.80;99.90
21722;DHT22;11023;48.274;7.794;2024-02-23T10:31:37;9.80;99.90
21722;DHT22;11023;48.274;7.794;2024-02-23T10:34:09;9.90;99.90
21722;DHT22;11023;48.274;7.794;2024-02-23T10:36:42;10.00;99.90
21722;DHT22;11023;48.274;7.794;2024-02-23T10:39:08;10.10;99.90
21722;DHT22;11023;48.274;7.794;2024-02-23T10:41:35;10.20;99.90
21722;DHT22;11023;48.274;7.794;2024-02-23T10:44:05;10.30;99.90
21722;DHT22;11023;48.274;7.794;2024-02-23T10:46:33;10.50;99.90
21722;DHT22;11023;48.274;7.794;2024-02-23T10:48:59;10.60;99.90
21722;DHT22;11023;48.274;7.794;2024-02-23T10:51:27;10.70;99.90
21722;DHT22;11023;48.274;7.794;2024-02-23T10:53:53;10.70;99.90
21722;DHT22;11023;48.274;7.794;2024-02-23T10:56:20;10.80;99.90
21722;DHT22;11023;48.274;7.794;2024-02-23T10:58:47;10.90;99.90
21722;DHT22;11023;48.274;7.794;2024-02-23T11:01:14;11.00;99.90
21722;DHT22;11023;48.274;7.794;2024-02-23T11:03:43;11.10;99.90
21722;DHT22;11023;48.274;7.794;2024-02-23T11:06:12;11.20;99.90
21722;DHT22;11023;48.274;7.794;2024-02-23T11:08:38;11.20;99.90
21722;DHT22;11023;48.274;7.794;2024-02-23T11:11:08;11.40;99.90
21722;DHT22;11023;48.274;7.794;2024-02-23T11:13:38;11.50;99.90
21722;DHT22;11023;48.274;7.794;2024-02-23T11:16:05;11.60;99.90
21722;DHT22;11023;48.274;7.794;2024-02-23T11:18:35;11.60;99.90
21722;DHT22;11023;48.274;7.794;2024-02-23T11:21:03;11.60;99.90
21722;DHT22;11023;48.274;7.794;2024-02-23T11:23:44;11.50;99.90
21722;DHT22;11023;48.274;7.794;2024-02-23T11:26:11;11.50;99.90
21722;DHT22;11023;48.274;7.794;2024-02-23T11:28:51;11.40;99.90
21722;DHT22;11023;48.274;7.794;2024-02-23T11:31:23;11.40;99.90
21722;DHT22;11023;48.274;7.794;2024-02-23T11:33:54;11.30;99.90
21722;DHT22;11023;48.274;7.794;2024-02-23T11:36:24;11.30;99.90
21722;DHT22;11023;48.274;7.794;2024-02-23T11:38:53;11.30;99.90
21722;DHT22;11023;48.274;7.794;2024-02-23T11:41:22;11.20;99.90
21722;DHT22;11023;48.274;7.794;2024-02-23T11:43:53;11.30;99.90
21722;DHT22;11023;48.274;7.794;2024-02-23T11:46:19;11.20;99.90
21722;DHT22;11023;48.274;7.794;2024-02-23T11:48:46;11.20;99.90
21722;DHT22;11023;48.274;7.794;2024-02-23T11:51:13;11.20;99.90
21722;DHT22;11023;48.274;7.794;2024-02-23T11:53:40;11.30;99.90
21722;DHT22;11023;48.274;7.794;2024-02-23T11:56:06;11.40;99.90
21722;DHT22;11023;48.274;7.794;2024-02-23T11:58:32;11.60;99.90
21722;DHT22;11023;48.274;7.794;2024-02-23T12:01:00;11.70;99.90
21722;DHT22;11023;48.274;7.794;2024-02-23T12:03:28;11.90;99.90
21722;DHT22;11023;48.274;7.794;2024-02-23T12:05:56;12.00;99.90
21722;DHT22;11023;48.274;7.794;2024-02-23T12:08:25;12.10;99.90
21722;DHT22;11023;48.274;7.794;2024-02-23T12:10:55;12.10;99.90
21722;DHT22;11023;48.274;7.794;2024-02-23T12:13:21;12.00;99.90
21722;DHT22;11023;48.274;7.794;2024-02-23T12:15:48;11.90;99.90
21722;DHT22;11023;48.274;7.794;2024-02-23T12:18:14;11.90;99.90
21722;DHT22;11023;48.274;7.794;2024-02-23T12:20:40;11.70;99.90
21722;DHT22;11023;48.274;7.794;2024-02-23T12:23:06;11.50;99.90
21722;DHT22;11023;48.274;7.794;2024-02-23T12:25:33;11.20;99.90
21722;DHT22;11023;48.274;7.794;2024-02-23T12:27:59;10.90;99.90
21722;DHT22;11023;48.274;7.794;2024-02-23T12:30:30;10.70;99.90
21722;DHT22;11023;48.274;7.794;2024-02-23T12:33:06;10.50;99.90
21722;DHT22;11023;48.274;7.794;2024-02-23T12:35:36;10.30;99.90
21722;DHT22;11023;48.274;7.794;2024-02-23T12:38:03;10.40;99.90
21722;DHT22;11023;48.274;7.794;2024-02-23T12:40:28;10.40;99.90
21722;DHT22;11023;48.274;7.794;2024-02-23T12:42:54;10.40;99.90
21722;DHT22;11023;48.274;7.794;2024-02-23T12:45:20;10.40;99.90
21722;DHT22;11023;48.274;7.794;2024-02-23T12:47:45;10.40;99.90
21722;DHT22;11023;48.274;7.794;2024-02-23T12:50:11;10.40;99.90
21722;DHT22;11023;48.274;7.794;2024-02-23T12:52:37;10.40;99.90
21722;DHT22;11023;48.274;7.794;2024-02-23T12:55:03;10.40;99.90
21722;DHT22;11023;48.274;7.794;2024-02-23T12:57:30;10.40;99.90
21722;DHT22;11023;48.274;7.794;2024-02-23T12:59:57;10.50;99.90
21722;DHT22;11023;48.274;7.794;2024-02-23T13:02:23;10.40;99.90
21722;DHT22;11023;48.274;7.794;2024-02-23T13:04:48;10.40;99.90
21722;DHT22;11023;48.274;7.794;2024-02-23T13:07:15;10.40;99.90
21722;DHT22;11023;48.274;7.794;2024-02-23T13:09:42;10.40;99.90
21722;DHT22;11023;48.274;7.794;2024-02-23T13:12:08;10.50;99.90
21722;DHT22;11023;48.274;7.794;2024-02-23T13:14:34;10.40;99.90
21722;DHT22;11023;48.274;7.794;2024-02-23T13:17:02;10.40;99.90
21722;DHT22;11023;48.274;7.794;2024-02-23T13:19:29;10.40;99.90
21722;DHT22;11023;48.274;7.794;2024-02-23T13:21:54;10.50;99.90
21722;DHT22;11023;48.274;7.794;2024-02-23T13:24:20;10.50;99.90
21722;DHT22;11023;48.274;7.794;2024-02-23T13:26:46;10.60;99.90
21722;DHT22;11023;48.274;7.794;2024-02-23T13:29:12;10.80;99.90
21722;DHT22;11023;48.274;7.794;2024-02-23T13:31:37;11.00;99.90
21722;DHT22;11023;48.274;7.794;2024-02-23T13:34:06;11.20;99.90
21722;DHT22;11023;48.274;7.794;2024-02-23T13:36:32;11.40;99.90
21722;DHT22;11023;48.274;7.794;2024-02-23T13:38:58;11.50;99.90
21722;DHT22;11023;48.274;7.794;2024-02-23T13:41:23;11.50;99.90
21722;DHT22;11023;48.274;7.794;2024-02-23T13:43:50;11.60;99.90
21722;DHT22;11023;48.274;7.794;2024-02-23T13:46:15;11.60;99.90
21722;DHT22;11023;48.274;7.794;2024-02-23T13:48:41;11.80;99.90
21722;DHT22;11023;48.274;7.794;2024-02-23T13:51:08;11.90;99.90
21722;DHT22;11023;48.274;7.794;2024-02-23T13:53:33;12.10;99.90
21722;DHT22;11023;48.274;7.794;2024-02-23T13:56:01;12.30;99.90
21722;DHT22;11023;48.274;7.794;2024-02-23T13:58:27;12.50;99.90
21722;DHT22;11023;48.274;7.794;2024-02-23T14:00:54;12.60;99.90
21722;DHT22;11023;48.274;7.794;2024-02-23T14:03:19;12.70;99.90
21722;DHT22;11023;48.274;7.794;2024-02-23T14:05:46;12.80;99.90
21722;DHT22;11023;48.274;7.794;2024-02-23T14:08:13;12.90;99.90
21722;DHT22;11023;48.274;7.794;2024-02-23T14:10:39;13.00;99.90
21722;DHT22;11023;48.274;7.794;2024-02-23T14:13:06;13.20;99.90
21722;DHT22;11023;48.274;7.794;2024-02-23T14:15:33;13.40;99.90
21722;DHT22;11023;48.274;7.794;2024-02-23T14:18:03;13.60;99.90
21722;DHT22;11023;48.274;7.794;2024-02-23T14:20:29;13.80;99.90
21722;DHT22;11023;48.274;7.794;2024-02-23T14:22:54;13.90;99.90
21722;DHT22;11023;48.274;7.794;2024-02-23T14:25:21;14.10;99.90
21722;DHT22;11023;48.274;7.794;2024-02-23T14:27:47;14.20;99.90
21722;DHT22;11023;48.274;7.794;2024-02-23T14:30:13;14.30;99.90
21722;DHT22;11023;48.274;7.794;2024-02-23T14:32:39;14.30;99.90
21722;DHT22;11023;48.274;7.794;2024-02-23T14:35:08;14.30;99.90
21722;DHT22;11023;48.274;7.794;2024-02-23T14:37:35;14.30;99.90
21722;DHT22;11023;48.274;7.794;2024-02-23T14:40:02;14.20;99.90
21722;DHT22;11023;48.274;7.794;2024-02-23T14:42:28;14.20;99.90
21722;DHT22;11023;48.274;7.794;2024-02-23T14:44:54;14.20;99.90
21722;DHT22;11023;48.274;7.794;2024-02-23T14:47:21;14.20;99.90
21722;DHT22;11023;48.274;7.794;2024-02-23T14:49:47;14.10;99.90
21722;DHT22;11023;48.274;7.794;2024-02-23T14:52:15;14.20;99.90
21722;DHT22;11023;48.274;7.794;2024-02-23T14:54:41;14.20;99.90
21722;DHT22;11023;48.274;7.794;2024-02-23T14:57:07;14.20;99.90
21722;DHT22;11023;48.274;7.794;2024-02-23T14:59:33;14.30;99.90
21722;DHT22;11023;48.274;7.794;2024-02-23T15:02:05;14.40;99.90
21722;DHT22;11023;48.274;7.794;2024-02-23T15:04:32;14.40;99.90
21722;DHT22;11023;48.274;7.794;2024-02-23T15:06:57;14.40;99.90
21722;DHT22;11023;48.274;7.794;2024-02-23T15:09:23;14.50;99.90
21722;DHT22;11023;48.274;7.794;2024-02-23T15:11:49;14.50;99.90
21722;DHT22;11023;48.274;7.794;2024-02-23T15:14:15;14.60;99.90
21722;DHT22;11023;48.274;7.794;2024-02-23T15:16:41;14.60;99.90
21722;DHT22;11023;48.274;7.794;2024-02-23T15:19:07;14.60;99.90
21722;DHT22;11023;48.274;7.794;2024-02-23T15:21:33;14.50;99.90
21722;DHT22;11023;48.274;7.794;2024-02-23T15:24:05;14.40;99.90
21722;DHT22;11023;48.274;7.794;2024-02-23T15:26:31;14.30;99.90
21722;DHT22;11023;48.274;7.794;2024-02-23T15:28:57;14.20;99.90
21722;DHT22;11023;48.274;7.794;2024-02-23T15:31:23;14.20;99.90
21722;DHT22;11023;48.274;7.794;2024-02-23T15:33:49;14.10;99.90
21722;DHT22;11023;48.274;7.794;2024-02-23T15:36:15;13.90;99.90